Time;durP1;ratioP1;P1;durP2;ratioP2;P2;SDS_P1;SDS_P2;PMS_P1;PMS_P2;Temp;Humidity;BMP_temperature;BMP_pressure;BME280_temperature;BME280_humidity;BME280_pressure;Samples;Min_cycle;Max_cycle;Signal;HPM_P1;HPM_P2
2022/03/25 00:01:16;;;;;;;32.80;24.67;;;;;;;;;;5109926;28;20035;-74
2022/03/25 00:03:42;;;;;;;29.30;22.77;;;;;;;;;;5100349;28;20074;-74
2022/03/25 00:06:08;;;;;;;31.80;24.00;;;;;;;;;;5111947;28;20027;-74
2022/03/25 00:08:33;;;;;;;32.78;24.70;;;;;;;;;;5112642;28;20030;-75
2022/03/25 00:10:58;;;;;;;31.95;24.48;;;;;;;;;;5111553;28;20028;-74
2022/03/25 00:13:23;;;;;;;33.95;24.55;;;;;;;;;;5101640;28;20438;-74
2022/03/25 00:15:49;;;;;;;31.02;23.30;;;;;;;;;;5103673;28;20380;-75
2022/03/25 00:18:14;;;;;;;31.05;25.05;;;;;;;;;;5098583;28;20043;-75
2022/03/25 00:20:39;;;;;;;31.00;23.73;;;;;;;;;;5100660;28;20023;-74
2022/03/25 00:23:05;;;;;;;31.33;24.25;;;;;;;;;;5098011;28;20035;-71
2022/03/25 00:25:30;;;;;;;34.28;25.52;;;;;;;;;;5106327;28;20107;-75
2022/03/25 00:27:55;;;;;;;35.08;25.83;;;;;;;;;;5085688;28;20081;-74
2022/03/25 00:30:20;;;;;;;32.88;26.10;;;;;;;;;;5109677;28;20020;-74
2022/03/25 00:32:46;;;;;;;36.80;26.02;;;;;;;;;;5102047;28;20038;-75
2022/03/25 00:35:11;;;;;;;35.38;25.40;;;;;;;;;;5111927;28;20047;-75
2022/03/25 00:37:36;;;;;;;37.58;26.08;;;;;;;;;;5100920;28;20262;-75
2022/03/25 00:40:02;;;;;;;36.03;25.48;;;;;;;;;;5113363;28;20357;-75
2022/03/25 00:42:28;;;;;;;39.80;25.98;;;;;;;;;;5100098;28;20023;-72
2022/03/25 00:44:55;;;;;;;32.33;24.67;;;;;;;;;;5112713;28;20016;-76
2022/03/25 00:47:20;;;;;;;34.20;25.30;;;;;;;;;;5106788;28;20039;-74
2022/03/25 00:49:46;;;;;;;33.78;24.45;;;;;;;;;;5092364;28;20012;-75
2022/03/25 00:52:11;;;;;;;33.38;25.40;;;;;;;;;;5095668;28;20138;-74
2022/03/25 00:54:36;;;;;;;32.40;25.63;;;;;;;;;;5094079;28;20629;-74
2022/03/25 00:57:02;;;;;;;32.22;23.67;;;;;;;;;;5103025;28;20049;-73
2022/03/25 00:59:28;;;;;;;33.40;24.02;;;;;;;;;;5109277;28;20030;-74
2022/03/25 01:01:53;;;;;;;33.05;24.48;;;;;;;;;;5110861;28;20460;-74
2022/03/25 01:04:18;;;;;;;34.05;24.08;;;;;;;;;;5110270;28;20020;-73
2022/03/25 01:06:43;;;;;;;31.35;24.30;;;;;;;;;;5100133;28;20024;-74
2022/03/25 01:09:09;;;;;;;34.10;23.27;;;;;;;;;;5109310;28;20027;-75
2022/03/25 01:11:35;;;;;;;29.73;22.75;;;;;;;;;;5089175;28;20456;-74
2022/03/25 01:14:01;;;;;;;33.45;24.48;;;;;;;;;;5099138;28;20030;-74
2022/03/25 01:16:26;;;;;;;34.72;23.02;;;;;;;;;;5111861;28;20106;-75
2022/03/25 01:18:51;;;;;;;31.48;24.00;;;;;;;;;;5108256;28;20513;-74
2022/03/25 01:21:17;;;;;;;32.40;23.15;;;;;;;;;;5107221;28;20048;-74
2022/03/25 01:23:43;;;;;;;33.08;23.20;;;;;;;;;;5092198;28;20383;-73
2022/03/25 01:26:08;;;;;;;34.42;24.25;;;;;;;;;;5097152;28;20487;-73
2022/03/25 01:28:34;;;;;;;28.75;22.70;;;;;;;;;;5110416;28;20043;-74
2022/03/25 01:31:03;;;;;;;31.30;23.05;;;;;;;;;;5110388;28;20076;-75
2022/03/25 01:33:28;;;;;;;30.10;23.30;;;;;;;;;;5093014;28;20043;-72
2022/03/25 01:35:54;;;;;;;31.52;22.98;;;;;;;;;;5097803;28;20024;-75
2022/03/25 01:38:19;;;;;;;33.35;23.73;;;;;;;;;;5110554;28;20498;-75
2022/03/25 01:40:44;;;;;;;30.23;22.98;;;;;;;;;;5093062;28;20487;-73
2022/03/25 01:43:09;;;;;;;31.27;22.75;;;;;;;;;;5096927;28;20016;-73
2022/03/25 01:45:36;;;;;;;30.05;22.42;;;;;;;;;;5092034;28;20016;-75
2022/03/25 01:48:03;;;;;;;33.38;23.33;;;;;;;;;;5110718;28;20024;-75
2022/03/25 01:50:28;;;;;;;30.05;23.23;;;;;;;;;;5092365;28;20080;-73
2022/03/25 01:52:54;;;;;;;33.17;23.38;;;;;;;;;;5098739;28;20028;-74
2022/03/25 01:55:26;;;;;;;31.77;23.58;;;;;;;;;;5107820;28;20023;-73
2022/03/25 01:57:54;;;;;;;31.17;22.38;;;;;;;;;;5101041;28;20417;-75
2022/03/25 02:00:20;;;;;;;30.95;22.23;;;;;;;;;;5112021;28;20050;-74
2022/03/25 02:02:46;;;;;;;31.27;23.45;;;;;;;;;;5087310;28;20024;-74
2022/03/25 02:05:11;;;;;;;29.23;21.98;;;;;;;;;;5100475;28;20020;-73
2022/03/25 02:07:37;;;;;;;27.08;21.40;;;;;;;;;;5101522;28;20504;-74
2022/03/25 02:10:04;;;;;;;27.88;21.92;;;;;;;;;;5112241;28;20115;-75
2022/03/25 02:12:30;;;;;;;31.20;22.35;;;;;;;;;;5111565;28;20046;-75
2022/03/25 02:14:57;;;;;;;29.73;22.23;;;;;;;;;;5110893;28;20452;-75
2022/03/25 02:17:22;;;;;;;29.90;22.95;;;;;;;;;;5095712;28;20114;-75
2022/03/25 02:19:48;;;;;;;29.95;22.35;;;;;;;;;;5113667;28;20127;-73
2022/03/25 02:22:13;;;;;;;28.33;21.80;;;;;;;;;;5112529;28;20098;-74
2022/03/25 02:24:38;;;;;;;29.52;22.38;;;;;;;;;;5098405;28;20026;-74
2022/03/25 02:27:05;;;;;;;31.85;23.23;;;;;;;;;;5109570;28;20098;-74
2022/03/25 02:29:33;;;;;;;31.58;22.83;;;;;;;;;;5108983;28;20361;-73
2022/03/25 02:31:58;;;;;;;33.58;23.67;;;;;;;;;;5115267;28;20440;-73
2022/03/25 02:34:24;;;;;;;30.90;23.23;;;;;;;;;;5111135;28;20073;-74
2022/03/25 02:36:49;;;;;;;32.45;23.13;;;;;;;;;;5107561;28;20417;-74
2022/03/25 02:39:15;;;;;;;30.08;23.20;;;;;;;;;;5107248;28;20111;-74
2022/03/25 02:41:41;;;;;;;33.90;24.00;;;;;;;;;;5095434;28;20051;-74
2022/03/25 02:44:07;;;;;;;35.22;24.63;;;;;;;;;;5109231;28;20501;-75
2022/03/25 02:46:32;;;;;;;33.58;24.27;;;;;;;;;;5108140;28;20019;-74
2022/03/25 02:48:57;;;;;;;29.30;22.40;;;;;;;;;;5111921;28;20027;-71
2022/03/25 02:51:23;;;;;;;35.10;23.60;;;;;;;;;;5115604;28;20027;-74
2022/03/25 02:53:48;;;;;;;33.20;24.00;;;;;;;;;;5104887;28;20028;-74
2022/03/25 02:56:14;;;;;;;33.60;23.42;;;;;;;;;;5099176;28;20035;-75
2022/03/25 02:58:39;;;;;;;31.48;22.80;;;;;;;;;;5113667;28;20446;-75
2022/03/25 03:01:06;;;;;;;31.95;24.08;;;;;;;;;;5114213;28;20027;-76
2022/03/25 03:03:32;;;;;;;34.07;24.57;;;;;;;;;;5098387;28;20027;-76
2022/03/25 03:05:57;;;;;;;35.90;25.77;;;;;;;;;;5091571;28;20341;-76
2022/03/25 03:08:22;;;;;;;31.43;23.77;;;;;;;;;;5099373;28;20024;-76
2022/03/25 03:10:47;;;;;;;36.13;24.67;;;;;;;;;;5098009;28;20032;-71
2022/03/25 03:13:13;;;;;;;35.23;24.17;;;;;;;;;;5106788;28;20019;-75
2022/03/25 03:15:38;;;;;;;33.60;24.53;;;;;;;;;;5109912;28;20020;-73
2022/03/25 03:18:04;;;;;;;33.30;22.43;;;;;;;;;;5103910;28;20015;-75
2022/03/25 03:20:30;;;;;;;31.53;23.00;;;;;;;;;;5108614;28;20016;-75
2022/03/25 03:22:58;;;;;;;30.13;22.47;;;;;;;;;;5108581;28;20056;-75
2022/03/25 03:25:25;;;;;;;30.60;22.83;;;;;;;;;;5101277;28;20054;-74
2022/03/25 03:27:50;;;;;;;30.33;22.73;;;;;;;;;;5112135;28;20024;-75
2022/03/25 03:30:15;;;;;;;33.73;23.73;;;;;;;;;;5113103;28;20034;-73
2022/03/25 03:32:40;;;;;;;32.90;23.20;;;;;;;;;;5095585;28;20161;-74
2022/03/25 03:35:06;;;;;;;32.53;23.17;;;;;;;;;;5103532;28;20126;-74
2022/03/25 03:37:38;;;;;;;31.33;22.67;;;;;;;;;;5106238;28;20032;-74
2022/03/25 03:40:04;;;;;;;32.03;22.27;;;;;;;;;;5114624;28;20478;-74
2022/03/25 03:42:29;;;;;;;32.43;23.23;;;;;;;;;;5097882;28;20043;-74
2022/03/25 03:44:54;;;;;;;35.00;24.67;;;;;;;;;;5100157;28;20024;-70
2022/03/25 03:47:20;;;;;;;32.93;24.70;;;;;;;;;;5096559;28;20384;-75
2022/03/25 03:49:45;;;;;;;33.93;23.20;;;;;;;;;;5112394;28;20031;-73
2022/03/25 03:52:10;;;;;;;34.83;24.17;;;;;;;;;;5101923;28;20032;-75
2022/03/25 03:54:37;;;;;;;33.53;24.43;;;;;;;;;;5103051;28;20028;-74
2022/03/25 03:57:02;;;;;;;35.13;24.20;;;;;;;;;;5108618;28;20044;-76
2022/03/25 03:59:27;;;;;;;32.50;23.07;;;;;;;;;;5110571;28;20441;-76
2022/03/25 04:01:52;;;;;;;31.73;23.13;;;;;;;;;;5105724;28;20024;-76
2022/03/25 04:04:18;;;;;;;32.07;22.53;;;;;;;;;;5103302;28;20066;-75
2022/03/25 04:06:43;;;;;;;35.00;24.47;;;;;;;;;;5096595;28;20076;-76
2022/03/25 04:09:09;;;;;;;29.77;22.90;;;;;;;;;;5106531;28;20389;-76
2022/03/25 04:11:34;;;;;;;33.03;24.07;;;;;;;;;;5108978;28;20096;-76
2022/03/25 04:13:59;;;;;;;35.07;25.13;;;;;;;;;;5113181;28;20027;-75
2022/03/25 04:16:24;;;;;;;35.37;23.83;;;;;;;;;;5110473;28;20032;-75
2022/03/25 04:18:49;;;;;;;29.77;22.40;;;;;;;;;;5093674;28;20032;-72
2022/03/25 04:21:15;;;;;;;30.83;22.30;;;;;;;;;;5112911;28;20035;-73
2022/03/25 04:23:40;;;;;;;29.07;21.77;;;;;;;;;;5112823;28;20033;-73
2022/03/25 04:26:05;;;;;;;30.50;22.63;;;;;;;;;;5107963;28;20498;-72
2022/03/25 04:28:31;;;;;;;30.53;22.77;;;;;;;;;;5111203;28;20042;-74
2022/03/25 04:30:56;;;;;;;30.17;21.97;;;;;;;;;;5102331;28;20056;-73
2022/03/25 04:33:21;;;;;;;30.13;22.30;;;;;;;;;;5092604;28;20028;-74
2022/03/25 04:35:46;;;;;;;27.67;21.17;;;;;;;;;;5110339;28;20429;-74
2022/03/25 04:38:11;;;;;;;28.37;21.93;;;;;;;;;;5105381;28;20016;-74
2022/03/25 04:40:37;;;;;;;31.10;22.13;;;;;;;;;;5092804;28;20393;-74
2022/03/25 04:43:03;;;;;;;31.53;22.57;;;;;;;;;;5098084;28;20464;-74
2022/03/25 04:45:29;;;;;;;31.27;22.70;;;;;;;;;;5107424;28;20391;-73
2022/03/25 04:47:54;;;;;;;29.87;22.40;;;;;;;;;;5112403;28;20039;-74
2022/03/25 04:50:20;;;;;;;31.40;21.70;;;;;;;;;;5097204;28;20020;-73
2022/03/25 04:52:45;;;;;;;31.37;22.30;;;;;;;;;;5111435;28;20028;-73
2022/03/25 04:55:11;;;;;;;32.20;23.37;;;;;;;;;;5097932;28;20043;-74
2022/03/25 04:57:37;;;;;;;34.07;24.10;;;;;;;;;;5109299;28;20047;-73
2022/03/25 05:00:02;;;;;;;33.43;23.97;;;;;;;;;;5107341;28;20085;-74
2022/03/25 05:02:27;;;;;;;37.40;25.20;;;;;;;;;;5100580;28;20103;-73
2022/03/25 05:04:55;;;;;;;36.27;24.53;;;;;;;;;;5097298;28;20445;-76
2022/03/25 05:07:20;;;;;;;33.17;24.37;;;;;;;;;;5074753;28;20073;-76
2022/03/25 05:09:45;;;;;;;40.50;24.73;;;;;;;;;;5091445;28;20020;-73
2022/03/25 05:12:12;;;;;;;31.23;23.07;;;;;;;;;;5102313;28;20039;-74
2022/03/25 05:14:37;;;;;;;35.27;23.60;;;;;;;;;;5077172;28;20024;-74
2022/03/25 05:17:03;;;;;;;36.63;25.43;;;;;;;;;;5092327;28;20038;-74
2022/03/25 05:19:28;;;;;;;37.43;26.40;;;;;;;;;;5090743;28;20107;-74
2022/03/25 05:21:53;;;;;;;36.20;25.07;;;;;;;;;;5112590;28;20206;-74
2022/03/25 05:24:18;;;;;;;42.17;26.87;;;;;;;;;;5103852;28;20020;-74
2022/03/25 05:26:44;;;;;;;39.57;25.47;;;;;;;;;;5102525;28;20438;-74
2022/03/25 05:29:09;;;;;;;33.50;23.73;;;;;;;;;;5112168;28;20082;-74
2022/03/25 05:31:36;;;;;;;33.70;24.10;;;;;;;;;;5110204;28;20023;-69
2022/03/25 05:34:03;;;;;;;29.70;22.43;;;;;;;;;;5110180;28;20117;-75
2022/03/25 05:36:29;;;;;;;34.07;24.23;;;;;;;;;;5102431;28;20035;-76
2022/03/25 05:38:55;;;;;;;33.30;21.93;;;;;;;;;;5101376;28;20023;-77
2022/03/25 05:41:20;;;;;;;37.57;24.23;;;;;;;;;;5095075;28;20031;-75
2022/03/25 05:43:46;;;;;;;32.53;23.10;;;;;;;;;;5103135;28;20020;-74
2022/03/25 05:46:11;;;;;;;29.97;22.37;;;;;;;;;;5111606;28;20023;-74
2022/03/25 05:48:36;;;;;;;34.20;23.63;;;;;;;;;;5110484;28;20028;-73
2022/03/25 05:51:02;;;;;;;36.23;24.17;;;;;;;;;;5115866;28;20024;-74
2022/03/25 05:53:27;;;;;;;33.47;21.90;;;;;;;;;;5115186;28;20024;-75
2022/03/25 05:55:53;;;;;;;34.57;23.43;;;;;;;;;;5108455;28;20047;-74
2022/03/25 05:58:18;;;;;;;31.83;22.70;;;;;;;;;;5114453;28;20051;-73
2022/03/25 06:00:43;;;;;;;30.70;22.23;;;;;;;;;;5109148;28;20368;-75
2022/03/25 06:03:10;;;;;;;30.07;22.20;;;;;;;;;;5115028;28;20507;-73
2022/03/25 06:05:35;;;;;;;31.13;21.80;;;;;;;;;;5114440;28;20023;-74
2022/03/25 06:08:00;;;;;;;32.23;22.23;;;;;;;;;;5107526;28;20115;-74
2022/03/25 06:10:25;;;;;;;29.77;22.17;;;;;;;;;;5113515;28;20533;-74
2022/03/25 06:12:50;;;;;;;32.37;21.83;;;;;;;;;;5110395;28;20028;-73
2022/03/25 06:15:16;;;;;;;34.90;21.57;;;;;;;;;;5109393;27;20109;-75
2022/03/25 06:17:42;;;;;;;34.27;21.73;;;;;;;;;;5107121;27;20027;-74
2022/03/25 06:20:07;;;;;;;27.67;21.30;;;;;;;;;;5106928;27;20031;-74
2022/03/25 06:22:34;;;;;;;29.43;21.03;;;;;;;;;;5109782;27;20030;-74
2022/03/25 06:24:59;;;;;;;32.63;21.33;;;;;;;;;;5110862;27;20019;-73
2022/03/25 06:27:24;;;;;;;29.93;21.30;;;;;;;;;;5106318;27;20474;-74
2022/03/25 06:29:49;;;;;;;28.57;21.13;;;;;;;;;;5106744;27;20027;-74
2022/03/25 06:32:15;;;;;;;28.73;22.03;;;;;;;;;;5111924;27;20028;-74
2022/03/25 06:34:40;;;;;;;32.13;22.00;;;;;;;;;;5112372;27;20570;-73
2022/03/25 06:37:05;;;;;;;33.88;22.65;;;;;;;;;;5115384;27;20426;-76
2022/03/25 06:39:31;;;;;;;33.20;21.40;;;;;;;;;;5100294;28;20434;-75
2022/03/25 06:41:56;;;;;;;32.97;21.00;;;;;;;;;;5100902;27;20020;-74
2022/03/25 06:44:21;;;;;;;31.60;22.33;;;;;;;;;;5108220;28;20115;-73
2022/03/25 06:46:46;;;;;;;31.60;21.13;;;;;;;;;;5108445;28;20542;-70
2022/03/25 06:49:12;;;;;;;31.73;21.73;;;;;;;;;;5102091;28;20091;-74
2022/03/25 06:51:37;;;;;;;33.08;22.15;;;;;;;;;;5102180;27;20518;-73
2022/03/25 06:54:03;;;;;;;37.78;22.30;;;;;;;;;;5109662;27;20085;-74
2022/03/25 06:56:28;;;;;;;31.45;20.67;;;;;;;;;;5104626;27;20065;-73
2022/03/25 06:58:54;;;;;;;32.60;20.33;;;;;;;;;;5103620;27;20028;-74
2022/03/25 07:01:19;;;;;;;32.72;21.10;;;;;;;;;;5108176;28;20020;-73
2022/03/25 07:03:44;;;;;;;30.25;20.52;;;;;;;;;;5094782;28;20463;-74
2022/03/25 07:06:10;;;;;;;30.27;21.10;;;;;;;;;;5113386;28;20023;-73
2022/03/25 07:08:35;;;;;;;32.63;22.58;;;;;;;;;;5108604;27;20027;-74
2022/03/25 07:11:00;;;;;;;30.77;21.10;;;;;;;;;;5114648;28;20475;-73
2022/03/25 07:13:27;;;;;;;28.35;21.63;;;;;;;;;;5079960;28;20381;-74
2022/03/25 07:15:52;;;;;;;29.63;22.13;;;;;;;;;;5094625;28;20027;-74
2022/03/25 07:18:17;;;;;;;28.63;21.23;;;;;;;;;;5100030;28;20034;-73
2022/03/25 07:20:43;;;;;;;27.65;21.55;;;;;;;;;;5109965;28;20125;-73
2022/03/25 07:23:08;;;;;;;29.75;20.25;;;;;;;;;;5110714;28;20027;-72
2022/03/25 07:25:33;;;;;;;28.25;20.65;;;;;;;;;;5102489;28;20138;-71
2022/03/25 07:27:58;;;;;;;25.75;20.50;;;;;;;;;;5111076;28;20012;-71
2022/03/25 07:30:24;;;;;;;28.08;20.45;;;;;;;;;;5114144;28;20085;-72
2022/03/25 07:32:49;;;;;;;31.15;21.08;;;;;;;;;;5105346;28;20055;-71
2022/03/25 07:35:14;;;;;;;26.98;20.45;;;;;;;;;;5105114;28;20049;-72
2022/03/25 07:37:41;;;;;;;29.35;20.98;;;;;;;;;;5106203;28;20020;-72
2022/03/25 07:40:09;;;;;;;30.45;21.77;;;;;;;;;;5114369;28;20376;-73
2022/03/25 07:42:34;;;;;;;34.47;22.63;;;;;;;;;;5114151;28;20464;-73
2022/03/25 07:45:01;;;;;;;29.25;21.15;;;;;;;;;;5112144;28;20026;-73
2022/03/25 07:47:26;;;;;;;28.52;20.55;;;;;;;;;;5097857;28;20094;-73
2022/03/25 07:49:52;;;;;;;28.30;20.83;;;;;;;;;;5111945;28;20106;-73
2022/03/25 07:52:17;;;;;;;27.35;20.20;;;;;;;;;;5093026;28;20044;-73
2022/03/25 07:54:42;;;;;;;26.88;19.08;;;;;;;;;;5093675;28;20118;-72
2022/03/25 07:57:07;;;;;;;35.35;21.23;;;;;;;;;;5105489;28;20047;-73
2022/03/25 07:59:33;;;;;;;26.35;19.23;;;;;;;;;;5112005;28;20388;-72
2022/03/25 08:01:58;;;;;;;28.02;19.85;;;;;;;;;;5112741;28;20129;-72
2022/03/25 08:04:24;;;;;;;27.30;19.88;;;;;;;;;;5113020;28;20011;-74
2022/03/25 08:06:53;;;;;;;28.08;20.50;;;;;;;;;;5103803;28;20461;-72
2022/03/25 08:09:18;;;;;;;28.65;19.83;;;;;;;;;;5101873;28;20023;-71
2022/03/25 08:11:47;;;;;;;29.13;19.48;;;;;;;;;;5098985;28;20372;-73
2022/03/25 08:14:13;;;;;;;27.80;20.10;;;;;;;;;;5106681;28;20131;-71
2022/03/25 08:16:38;;;;;;;29.05;20.50;;;;;;;;;;5111274;28;20115;-72
2022/03/25 08:19:03;;;;;;;30.92;19.77;;;;;;;;;;5098761;28;20456;-73
2022/03/25 08:21:28;;;;;;;31.48;20.63;;;;;;;;;;5097600;28;20372;-71
2022/03/25 08:29:22;;;;;;;29.75;20.05;;;;;;;;;;5110346;28;20066;-71
2022/03/25 08:31:47;;;;;;;30.63;20.60;;;;;;;;;;5079749;28;20463;-73
2022/03/25 08:34:15;;;;;;;30.13;21.10;;;;;;;;;;5076103;28;20125;-72
2022/03/25 08:36:41;;;;;;;30.95;21.50;;;;;;;;;;5109360;28;20028;-73
2022/03/25 08:39:06;;;;;;;31.63;21.48;;;;;;;;;;5110617;28;20026;-72
2022/03/25 08:41:31;;;;;;;34.03;21.58;;;;;;;;;;5112638;28;20019;-72
2022/03/25 08:43:57;;;;;;;32.55;22.13;;;;;;;;;;5092119;28;20030;-73
2022/03/25 08:46:22;;;;;;;33.15;21.25;;;;;;;;;;5094644;28;20066;-73
2022/03/25 08:48:47;;;;;;;34.38;22.70;;;;;;;;;;5097452;28;20042;-71
2022/03/25 08:51:13;;;;;;;28.33;19.17;;;;;;;;;;5096173;28;20024;-71
2022/03/25 08:53:39;;;;;;;33.58;19.77;;;;;;;;;;5098075;28;20027;-71
2022/03/25 08:56:04;;;;;;;30.52;21.15;;;;;;;;;;5108592;28;20016;-73
2022/03/25 08:58:29;;;;;;;27.75;20.02;;;;;;;;;;5107731;28;20046;-73
2022/03/25 09:00:54;;;;;;;27.15;20.80;;;;;;;;;;5110966;28;20105;-75
2022/03/25 09:03:20;;;;;;;29.88;19.33;;;;;;;;;;5106705;28;20020;-74
2022/03/25 09:05:45;;;;;;;33.70;20.85;;;;;;;;;;5107439;28;20478;-74
2022/03/25 09:08:10;;;;;;;27.98;20.02;;;;;;;;;;5104528;28;20054;-73
2022/03/25 09:10:35;;;;;;;28.88;19.20;;;;;;;;;;5095480;28;20152;-74
2022/03/25 09:13:01;;;;;;;27.13;17.70;;;;;;;;;;5112620;28;20022;-73
2022/03/25 09:15:26;;;;;;;26.83;18.13;;;;;;;;;;5112350;28;20027;-74
2022/03/25 09:17:51;;;;;;;24.65;17.50;;;;;;;;;;5098909;28;20027;-73
2022/03/25 09:20:16;;;;;;;24.25;16.67;;;;;;;;;;5094742;28;20048;-74
2022/03/25 09:22:42;;;;;;;20.90;15.55;;;;;;;;;;5098573;28;20012;-74
2022/03/25 09:25:08;;;;;;;26.33;16.52;;;;;;;;;;5105680;28;20400;-74
2022/03/25 09:27:33;;;;;;;25.65;16.48;;;;;;;;;;5104635;28;20078;-74
2022/03/25 09:29:59;;;;;;;23.42;14.93;;;;;;;;;;5109854;28;20360;-73
2022/03/25 09:32:24;;;;;;;20.02;13.00;;;;;;;;;;5107728;28;20058;-75
2022/03/25 09:37:37;;;;;;;19.13;12.57;;;;;;;;;;5102971;28;20480;-76
2022/03/25 09:40:04;;;;;;;14.57;9.60;;;;;;;;;;5112432;28;20031;-75
2022/03/25 09:42:30;;;;;;;17.35;9.60;;;;;;;;;;5112052;28;20095;-73
2022/03/25 09:44:56;;;;;;;15.68;8.18;;;;;;;;;;5108929;28;20103;-74
2022/03/25 09:47:21;;;;;;;14.27;8.38;;;;;;;;;;5103176;28;20131;-74
2022/03/25 09:49:46;;;;;;;12.30;8.60;;;;;;;;;;5098544;28;20408;-75
2022/03/25 09:52:12;;;;;;;14.07;9.25;;;;;;;;;;5106733;28;20036;-74
2022/03/25 09:54:37;;;;;;;14.23;9.98;;;;;;;;;;5109121;28;20036;-74
2022/03/25 09:57:02;;;;;;;15.25;9.57;;;;;;;;;;5106792;28;20446;-74
2022/03/25 09:59:28;;;;;;;17.50;9.60;;;;;;;;;;5111043;28;20071;-73
2022/03/25 10:01:53;;;;;;;13.75;9.77;;;;;;;;;;5111989;28;20020;-74
2022/03/25 10:04:37;;;;;;;15.10;9.73;;;;;;;;;;5110171;28;20020;-75
2022/03/25 10:07:30;;;;;;;12.02;8.48;;;;;;;;;;5098556;28;20020;-74
2022/03/25 10:10:09;;;;;;;16.65;9.27;;;;;;;;;;5089208;28;20032;-75
2022/03/25 10:12:35;;;;;;;12.13;8.68;;;;;;;;;;5091361;28;20024;-75
2022/03/25 10:15:15;;;;;;;11.82;8.48;;;;;;;;;;5110572;28;20034;-74
2022/03/25 10:17:47;;;;;;;14.55;8.85;;;;;;;;;;5110135;28;20043;-74
2022/03/25 10:20:13;;;;;;;15.38;10.48;;;;;;;;;;5111527;28;20026;-75
2022/03/25 10:22:39;;;;;;;13.57;9.80;;;;;;;;;;5110614;28;20012;-75
2022/03/25 10:25:09;;;;;;;14.38;9.57;;;;;;;;;;5110835;28;20027;-75
2022/03/25 10:27:34;;;;;;;18.98;11.30;;;;;;;;;;5107355;28;20484;-75
2022/03/25 10:30:03;;;;;;;16.50;11.23;;;;;;;;;;5094147;28;20071;-73
2022/03/25 10:32:28;;;;;;;17.35;12.30;;;;;;;;;;5111993;28;20035;-75
2022/03/25 10:35:07;;;;;;;20.48;14.55;;;;;;;;;;5109990;28;20472;-76
2022/03/25 10:37:32;;;;;;;22.23;14.25;;;;;;;;;;5111707;28;20023;-75
2022/03/25 10:39:58;;;;;;;20.00;14.45;;;;;;;;;;5095193;28;20020;-75
2022/03/25 10:42:23;;;;;;;19.00;14.18;;;;;;;;;;5094220;28;20020;-75
2022/03/25 10:44:49;;;;;;;17.33;14.57;;;;;;;;;;5114410;28;20498;-72
2022/03/25 10:47:17;;;;;;;17.05;13.27;;;;;;;;;;5099486;28;20039;-76
2022/03/25 10:49:43;;;;;;;17.52;12.75;;;;;;;;;;5094393;28;20027;-75
2022/03/25 10:52:31;;;;;;;16.17;11.77;;;;;;;;;;5095970;28;20024;-72
2022/03/25 10:55:15;;;;;;;15.77;12.10;;;;;;;;;;5111475;28;20030;-75
2022/03/25 10:57:52;;;;;;;16.67;12.48;;;;;;;;;;5106790;28;20048;-76
2022/03/25 11:00:17;;;;;;;15.48;12.48;;;;;;;;;;5112702;28;20030;-73
2022/03/25 11:02:44;;;;;;;18.73;13.38;;;;;;;;;;5114704;28;20023;-76
2022/03/25 11:05:10;;;;;;;16.67;11.88;;;;;;;;;;5113966;28;20052;-76
2022/03/25 11:07:39;;;;;;;16.75;12.40;;;;;;;;;;5104043;28;20101;-76
2022/03/25 11:10:05;;;;;;;16.45;12.20;;;;;;;;;;5094546;28;20075;-76
2022/03/25 11:12:30;;;;;;;14.60;10.90;;;;;;;;;;5094930;28;20016;-73
2022/03/25 11:14:58;;;;;;;15.65;11.57;;;;;;;;;;5106255;28;20092;-76
2022/03/25 11:17:26;;;;;;;15.15;11.23;;;;;;;;;;5096874;28;20070;-74
2022/03/25 11:19:51;;;;;;;15.85;11.55;;;;;;;;;;5112045;28;20016;-74
2022/03/25 11:22:17;;;;;;;12.90;10.05;;;;;;;;;;5115186;27;20080;-72
2022/03/25 11:24:52;;;;;;;14.15;10.40;;;;;;;;;;5113241;28;20422;-75
2022/03/25 11:27:17;;;;;;;14.43;10.07;;;;;;;;;;5107940;28;20043;-73
2022/03/25 11:29:44;;;;;;;14.85;11.85;;;;;;;;;;5113007;28;20058;-74
2022/03/25 11:32:14;;;;;;;16.17;11.48;;;;;;;;;;5111505;28;20488;-75
2022/03/25 11:34:59;;;;;;;15.38;11.98;;;;;;;;;;5113622;28;20015;-75
2022/03/25 11:37:24;;;;;;;;;;;;;;;;;;5114912;28;20024;-75
2022/03/25 11:40:08;;;;;;;15.48;12.25;;;;;;;;;;5114451;28;19933;-74
2022/03/25 11:42:39;;;;;;;12.85;11.23;;;;;;;;;;5112044;28;20061;-75
2022/03/25 11:45:22;;;;;;;14.15;11.48;;;;;;;;;;5112304;28;20065;-75
2022/03/25 11:48:00;;;;;;;15.38;12.05;;;;;;;;;;5108781;28;20115;-74
2022/03/25 11:50:26;;;;;;;13.05;11.55;;;;;;;;;;5095721;28;20020;-76
2022/03/25 11:52:52;;;;;;;14.73;10.82;;;;;;;;;;5108857;28;20073;-76
2022/03/25 11:55:17;;;;;;;13.77;11.27;;;;;;;;;;5093521;28;20024;-76
2022/03/25 11:57:43;;;;;;;11.87;10.63;;;;;;;;;;5109994;28;20415;-76
2022/03/25 12:00:12;;;;;;;13.63;12.13;;;;;;;;;;5112521;28;20062;-77
2022/03/25 12:02:38;;;;;;;11.90;10.65;;;;;;;;;;5094804;28;20024;-77
2022/03/25 12:05:22;;;;;;;11.48;10.25;;;;;;;;;;5107371;28;20016;-76
2022/03/25 12:08:06;;;;;;;14.38;10.55;;;;;;;;;;5102582;28;20034;-76
2022/03/25 12:10:44;;;;;;;11.80;10.48;;;;;;;;;;5100824;28;20369;-75
2022/03/25 12:13:09;;;;;;;12.23;10.52;;;;;;;;;;5107855;28;20277;-76
2022/03/25 12:15:41;;;;;;;11.83;10.00;;;;;;;;;;5103992;28;20502;-76
2022/03/25 12:18:25;;;;;;;10.70;9.57;;;;;;;;;;5110406;28;20102;-75
2022/03/25 12:20:51;;;;;;;14.73;9.20;;;;;;;;;;5106495;28;20019;-75
2022/03/25 12:23:16;;;;;;;11.00;9.67;;;;;;;;;;5110863;28;20084;-76
2022/03/25 12:25:44;;;;;;;10.43;9.43;;;;;;;;;;5105629;28;20079;-75
2022/03/25 12:28:10;;;;;;;11.20;9.95;;;;;;;;;;5112378;28;20037;-74
2022/03/25 12:30:38;;;;;;;11.52;9.30;;;;;;;;;;5111590;28;20396;-76
2022/03/25 12:33:08;;;;;;;10.20;8.25;;;;;;;;;;5106822;28;20157;-76
2022/03/25 12:35:35;;;;;;;11.25;8.90;;;;;;;;;;5105017;28;20027;-76
2022/03/25 12:38:09;;;;;;;10.98;8.93;;;;;;;;;;5103893;28;20016;-77
2022/03/25 12:40:35;;;;;;;9.63;8.68;;;;;;;;;;5091825;28;20046;-77
2022/03/25 12:43:04;;;;;;;10.38;8.20;;;;;;;;;;5097034;28;20456;-77
2022/03/25 12:45:36;;;;;;;10.27;8.30;;;;;;;;;;5105108;27;20107;-77
2022/03/25 12:48:31;;;;;;;10.15;9.10;;;;;;;;;;5095696;28;20020;-78
2022/03/25 12:50:56;;;;;;;;;;;;;;;;;;5095009;28;20039;-78
2022/03/25 12:53:22;;;;;;;9.90;8.48;;;;;;;;;;5113512;28;20497;-77
2022/03/25 12:55:48;;;;;;;10.13;8.93;;;;;;;;;;5102453;28;20032;-78
2022/03/25 12:58:14;;;;;;;11.30;8.50;;;;;;;;;;5110871;28;20514;-78
2022/03/25 13:00:40;;;;;;;9.85;8.55;;;;;;;;;;5102405;28;20024;-74
2022/03/25 13:03:06;;;;;;;9.38;8.13;;;;;;;;;;5102949;28;20023;-75
2022/03/25 13:05:32;;;;;;;10.02;7.95;;;;;;;;;;5108583;28;20399;-74
2022/03/25 13:07:57;;;;;;;9.27;7.95;;;;;;;;;;5104263;28;20103;-74
2022/03/25 13:10:23;;;;;;;7.85;6.28;;;;;;;;;;5101121;28;20028;-72
2022/03/25 13:12:54;;;;;;;10.95;8.30;;;;;;;;;;5101337;28;20058;-75
2022/03/25 13:15:23;;;;;;;11.02;8.98;;;;;;;;;;5106028;28;20031;-74
2022/03/25 13:17:50;;;;;;;9.43;8.52;;;;;;;;;;5112472;28;20131;-74
2022/03/25 13:20:17;;;;;;;10.35;8.68;;;;;;;;;;5109468;28;20027;-74
2022/03/25 13:22:54;;;;;;;10.07;7.80;;;;;;;;;;5108229;28;20051;-74
2022/03/25 13:25:28;;;;;;;13.52;8.20;;;;;;;;;;5096993;28;20050;-73
2022/03/25 13:27:54;;;;;;;12.77;8.50;;;;;;;;;;5100097;28;20020;-59
2022/03/25 13:30:26;;;;;;;8.45;7.60;;;;;;;;;;5100335;28;20022;-67
2022/03/25 13:33:02;;;;;;;9.40;8.40;;;;;;;;;;5102534;28;20380;-63
2022/03/25 13:35:32;;;;;;;8.55;7.38;;;;;;;;;;5107603;28;20027;-64
2022/03/25 13:37:59;;;;;;;7.63;6.47;;;;;;;;;;5104875;28;20560;-67
2022/03/25 13:40:27;;;;;;;9.90;7.10;;;;;;;;;;5098031;28;20050;-67
2022/03/25 13:42:53;;;;;;;7.53;6.80;;;;;;;;;;5100467;28;20073;-64
2022/03/25 13:45:19;;;;;;;9.02;7.43;;;;;;;;;;5106617;28;20038;-67
2022/03/25 13:47:44;;;;;;;11.27;6.68;;;;;;;;;;5092136;28;20015;-64
2022/03/25 13:50:21;;;;;;;13.60;7.60;;;;;;;;;;5107617;28;20028;-68
2022/03/25 13:52:53;;;;;;;9.50;6.60;;;;;;;;;;5106151;28;20504;-63
2022/03/25 13:55:19;;;;;;;9.20;6.25;;;;;;;;;;5105379;28;20025;-66
2022/03/25 13:57:57;;;;;;;10.05;6.68;;;;;;;;;;5091123;28;20048;-63
2022/03/25 14:00:29;;;;;;;10.10;5.85;;;;;;;;;;5106137;28;20107;-53
2022/03/25 14:02:54;;;;;;;9.00;5.88;;;;;;;;;;5118199;28;20076;-64
2022/03/25 14:05:25;;;;;;;9.00;5.90;;;;;;;;;;5110435;28;20039;-62
2022/03/25 14:07:50;;;;;;;11.90;6.28;;;;;;;;;;5106937;28;20020;-59
2022/03/25 14:10:15;;;;;;;8.55;6.07;;;;;;;;;;5103095;28;20020;-62
2022/03/25 14:12:41;;;;;;;8.90;6.23;;;;;;;;;;5104269;28;20023;-63
2022/03/25 14:15:07;;;;;;;9.10;6.43;;;;;;;;;;5110839;28;20257;-63
2022/03/25 14:17:33;;;;;;;10.07;6.45;;;;;;;;;;5115100;28;20066;-64
2022/03/25 14:20:00;;;;;;;9.35;6.28;;;;;;;;;;5112478;28;20019;-64
2022/03/25 14:22:25;;;;;;;9.48;6.88;;;;;;;;;;5115222;28;20024;-64
2022/03/25 14:24:50;;;;;;;9.68;6.80;;;;;;;;;;5102945;28;20031;-69
2022/03/25 14:27:15;;;;;;;9.87;7.13;;;;;;;;;;5108513;28;20492;-70